Terminal Aerodrome Forecast
Issued by NWS North Platte, NE

Home | Current Version | Previous Version | Text Only | Print | Product List | Glossary On
Versions: 1 2 3 4 5 6 7 8 9 10 11 12 13 14 15
317
FTUS43 KLBF 260520
TAFLBF
TAF
KLBF 260520Z 2606/2706 10005KT P6SM SCT200
     FM261500 13008KT P6SM BKN120
     FM261900 13010KT P6SM VCTS BKN050CB OVC100
      TEMPO 2620/2624 4SM TSRA BKN030CB OVC050
     FM270100 07007KT P6SM SCT100 SCT250
     FM270500 VRB06KT 3SM BR OVC012=

USA.gov is the U.S. government's official web portal to all federal, state and local government web resources and services.